• Join FlightAware (Why Join?)
  • Login
  • US Flag 
09:28PM EST


 

Airport Tracker/Info


-or-


 

Live Flight TrackerFlight Track Log ✈ CTL18 ✈ 08-May-2013 ✈ KYIP - KBKL

Flight Track Log - Related Links

Times and Time Zones

All times are in EDT time to prevent confusion due to time zone crossing. See the CTL18 flight status page for this flight to view local times or setup timezone preferences in your user account.

Time Position Orientation Groundspeed Altitude Reporting Facility
EDT Latitude Longitude Course Direction KTS MPH feet Rate Location/Type
09:34PM 42.2217 -83.5497 226° Southwest 113 130 1,000  Level Cleveland Center
09:35PM 42.1981 -83.5822 226° Southwest 133 153 1,800 780 Climbing Cleveland Center
09:36PM 42.1681 -83.6144 219° Southwest 144 166 2,500 540 Climbing Cleveland Center
09:37PM 42.1264 -83.6097 175° South 163 188 2,900 240 Climbing Cleveland Center
09:38PM 42.0806 -83.6075 178° South 171 197 3,000  Climbing Cleveland Center
09:39PM 42.0439 -83.5778 149° Southeast 167 192 2,900 -60 Descending Cleveland Center
09:40PM 42.0267 -83.5156 110° East 171 197 2,900  Level Cleveland Center
09:41PM 42.0094 -83.4561 111° Southeast 173 199 3,000 180 Climbing Cleveland Center
09:42PM 41.9922 -83.3967 111° Southeast 164 189 3,300 360 Climbing Cleveland Center
09:43PM 41.9728 -83.3397 115° Southeast 163 188 3,800 420 Climbing Cleveland Center
09:44PM 41.9553 -83.2833 113° Southeast 158 182 4,200 420 Climbing Cleveland Center
09:45PM 41.9400 -83.2211 108° East 161 185 4,700 360 Climbing Cleveland Center
09:46PM 41.9225 -83.1647 113° Southeast 160 184 5,000 120 Climbing Cleveland Center
09:47PM 41.9050 -83.1053 112° Southeast 172 198 5,000  Level Cleveland Center
09:48PM 41.8917 -83.0544 109° East 170 196 5,000  Level Cleveland Center
09:49PM 41.8722 -82.9925 113° Southeast 169 194 5,000 60 Level Cleveland Center
09:49PM 41.8603 -82.9586 115° Southeast 169 194 5,100 60 Climbing Cleveland Center
09:50PM 41.8489 -82.9108 108° East 172 198 5,100  Level Cleveland Center
09:51PM 41.8333 -82.8489 109° East 175 201 5,100  Level Cleveland Center
09:52PM 41.8156 -82.7925 113° Southeast 176 203 5,100  Level Cleveland Center
09:53PM 41.8003 -82.7308 108° East 175 201 5,100  Level Cleveland Center
09:54PM 41.7806 -82.6661 112° Southeast 175 201 5,100 -60 Level Cleveland Center
09:55PM 41.7586 -82.6014 114° Southeast 177 204 5,000 -180 Descending Cleveland Center
09:56PM 41.7431 -82.5450 110° East 183 211 4,800 -420 Descending Cleveland Center
09:57PM 41.7192 -82.4775 115° Southeast 186 214 4,300 -540 Descending Cleveland Center
09:58PM 41.6972 -82.4131 114° Southeast 189 217 3,800 -480 Descending Cleveland Center
09:59PM 41.6856 -82.3681 109° East 185 213 3,500 -360 Descending Cleveland Center
10:00PM 41.6697 -82.3011 108° East 181 208 3,200 -240 Descending Cleveland Center
10:01PM 41.6519 -82.2422 112° Southeast 173 199 3,100 -60 Descending Cleveland Center
10:02PM 41.6319 -82.1750 112° Southeast 166 191 3,100  Level Cleveland Center
10:03PM 41.6222 -82.1219 104° East 164 189 3,100 -180 Level Cleveland Center
10:04PM 41.6044 -82.0578 110° East 167 192 2,800 -240 Descending Cleveland Center
10:05PM 41.5886 -81.9989 110° East 169 194 2,600 -240 Descending Cleveland Center
10:06PM 41.5706 -81.9292 109° East 171 197 2,400 -240 Descending Cleveland Center
10:07PM 41.5506 -81.8650 113° Southeast 169 194 2,100 -240 Descending Cleveland Center
10:08PM 41.5303 -81.8147 118° Southeast 160 184 1,900 -300 Descending Cleveland Center
10:09PM 41.5161 -81.7644 111° Southeast 152 175 1,600 -420 Descending Cleveland Center
10:10PM 41.5061 -81.7172 106° East 111 128 1,200 -420 Descending Cleveland Center
10:12PM 41.5175 -81.6833 108° East  Level Estimated
10:19PM 41.5175 -81.6833 108° East  Level Estimated